createdAt,value
2019-01-04T00:01:00.296Z,12.00
2019-01-04T00:03:32.345Z,12.60
2019-01-04T00:06:04.439Z,12.00
2019-01-04T00:08:36.653Z,12.07
2019-01-04T00:11:08.055Z,11.97
2019-01-04T00:13:39.470Z,11.17
2019-01-04T00:16:11.952Z,11.23
2019-01-04T00:18:46.167Z,11.37
2019-01-04T00:21:16.886Z,12.23
2019-01-04T00:23:47.330Z,11.23
2019-01-04T00:26:17.961Z,11.27
2019-01-04T00:28:51.402Z,11.63
2019-01-04T00:31:23.502Z,13.07
2019-01-04T00:33:54.109Z,12.30
2019-01-04T00:36:24.705Z,12.50
2019-01-04T00:38:55.736Z,12.23
2019-01-04T00:41:29.445Z,14.20
2019-01-04T00:44:00.756Z,13.07
2019-01-04T00:46:32.716Z,13.90
2019-01-04T00:49:03.942Z,12.53
2019-01-04T00:51:35.782Z,14.00
2019-01-04T00:54:08.406Z,13.33
2019-01-04T00:57:15.052Z,13.07
2019-01-04T01:00:26.987Z,13.50
2019-01-04T01:03:49.484Z,13.77
2019-01-04T01:06:54.437Z,13.47
2019-01-04T01:10:09.011Z,13.60
2019-01-04T01:13:18.592Z,13.00
2019-01-04T01:16:35.053Z,13.50
2019-01-04T01:20:04.356Z,13.47
2019-01-04T01:23:25.008Z,13.13
2019-01-04T01:26:51.444Z,12.33
2019-01-04T01:29:55.302Z,11.87
2019-01-04T01:33:22.358Z,12.73
2019-01-04T01:36:21.217Z,13.10
2019-01-04T01:39:54.456Z,12.30
2019-01-04T01:43:02.231Z,13.37
2019-01-04T01:46:14.654Z,13.50
2019-01-04T01:49:49.335Z,13.97
2019-01-04T01:52:26.799Z,13.57
2019-01-04T01:54:58.872Z,13.03
2019-01-04T01:57:31.557Z,13.73
2019-01-04T02:00:02.897Z,14.20
2019-01-04T02:02:34.536Z,14.30
2019-01-04T02:05:06.420Z,14.47
2019-01-04T02:07:39.780Z,14.67
2019-01-04T02:10:11.883Z,14.87
2019-01-04T02:12:44.838Z,15.23
2019-01-04T02:15:16.837Z,15.40
2019-01-04T02:17:48.534Z,16.20
2019-01-04T02:20:20.684Z,15.63
2019-01-04T02:22:52.900Z,17.83
2019-01-04T02:25:23.697Z,16.90
2019-01-04T02:27:55.536Z,17.50
2019-01-04T02:30:27.105Z,17.13
2019-01-04T02:32:57.419Z,17.13
2019-01-04T02:35:28.809Z,16.07
2019-01-04T02:38:00.141Z,17.27
2019-01-04T02:40:30.440Z,17.20
2019-01-04T02:43:03.031Z,16.40
2019-01-04T02:45:35.115Z,17.53
2019-01-04T02:48:07.072Z,17.53
2019-01-04T02:50:38.398Z,17.93
2019-01-04T02:53:10.855Z,18.43
2019-01-04T02:55:42.580Z,18.13
2019-01-04T02:58:14.816Z,19.13
2019-01-04T03:00:45.846Z,19.73
2019-01-04T03:03:18.174Z,20.33
2019-01-04T03:05:49.406Z,21.07
2019-01-04T03:08:22.057Z,21.77
2019-01-04T03:10:54.509Z,23.30
2019-01-04T03:13:26.242Z,23.63
2019-01-04T03:15:57.056Z,23.10
2019-01-04T03:18:30.482Z,22.83
2019-01-04T03:21:01.546Z,22.73
2019-01-04T03:23:34.327Z,23.10
2019-01-04T03:26:06.622Z,23.43
2019-01-04T03:28:38.134Z,24.80
2019-01-04T03:31:08.873Z,23.80
2019-01-04T03:33:40.561Z,24.30
2019-01-04T03:36:12.429Z,25.83
2019-01-04T03:38:43.628Z,24.47
2019-01-04T03:41:14.248Z,25.80
2019-01-04T03:43:44.981Z,26.53
2019-01-04T03:46:16.684Z,26.00
2019-01-04T03:48:49.073Z,27.57
2019-01-04T03:51:19.380Z,27.83
2019-01-04T03:53:50.174Z,29.23
2019-01-04T03:56:21.624Z,27.37
2019-01-04T03:58:53.213Z,28.07
2019-01-04T04:01:24.760Z,26.60
2019-01-04T04:03:56.937Z,27.43
2019-01-04T04:06:28.379Z,30.53
2019-01-04T04:09:00.998Z,29.43
2019-01-04T04:11:32.355Z,30.80
2019-01-04T04:14:04.285Z,30.10
2019-01-04T04:16:35.596Z,31.33
2019-01-04T04:19:08.224Z,33.30
2019-01-04T04:21:40.447Z,34.80
2019-01-04T04:24:12.885Z,37.77
2019-01-04T04:26:46.703Z,38.50
2019-01-04T04:29:17.876Z,37.70
2019-01-04T04:31:49.522Z,37.60
2019-01-04T04:34:20.538Z,36.00
2019-01-04T04:36:52.205Z,36.97
2019-01-04T04:39:22.973Z,36.20
2019-01-04T04:41:53.563Z,34.20
2019-01-04T04:44:23.890Z,32.97
2019-01-04T04:46:54.158Z,32.17
2019-01-04T04:49:26.611Z,31.33
2019-01-04T04:51:59.349Z,31.23
2019-01-04T04:54:30.530Z,29.33
2019-01-04T04:57:01.668Z,29.83
2019-01-04T04:59:35.067Z,29.37
2019-01-04T05:02:06.679Z,29.23
2019-01-04T05:04:38.572Z,27.97
2019-01-04T05:07:10.361Z,28.60
2019-01-04T05:09:44.157Z,26.83
2019-01-04T05:12:15.285Z,27.03
2019-01-04T05:14:46.155Z,27.83
2019-01-04T05:17:16.426Z,26.00
2019-01-04T05:19:47.258Z,24.43
2019-01-04T05:22:18.939Z,24.60
2019-01-04T05:24:51.331Z,24.03
2019-01-04T05:27:24.529Z,23.57
2019-01-04T05:29:57.296Z,22.63
2019-01-04T05:32:28.713Z,21.73
2019-01-04T05:35:00.178Z,21.47
2019-01-04T05:37:31.234Z,20.57
2019-01-04T05:40:03.086Z,19.63
2019-01-04T05:42:34.158Z,19.90
2019-01-04T05:45:06.032Z,19.37
2019-01-04T05:47:37.838Z,18.80
2019-01-04T05:50:09.522Z,18.03
2019-01-04T05:52:41.674Z,17.37
2019-01-04T05:55:13.673Z,17.03
2019-01-04T05:57:45.184Z,17.17
2019-01-04T06:00:17.499Z,16.00
2019-01-04T06:02:49.115Z,16.73
2019-01-04T06:05:20.880Z,15.53
2019-01-04T06:07:56.687Z,15.33
2019-01-04T06:10:32.740Z,13.87
2019-01-04T06:13:09.430Z,14.87
2019-01-04T06:15:41.402Z,15.77
2019-01-04T06:18:11.726Z,16.00
2019-01-04T06:20:42.370Z,15.63
2019-01-04T06:23:13.374Z,16.97
2019-01-04T06:25:45.828Z,16.03
2019-01-04T06:28:17.458Z,16.13
2019-01-04T06:30:48.865Z,17.17
2019-01-04T06:33:19.968Z,17.53
2019-01-04T06:35:51.086Z,18.50
2019-01-04T06:38:21.767Z,16.37
2019-01-04T06:40:56.781Z,16.70
2019-01-04T06:43:27.963Z,16.80
2019-01-04T06:46:00.124Z,17.03
2019-01-04T06:48:31.686Z,16.60
2019-01-04T06:51:03.323Z,15.87
2019-01-04T06:53:36.777Z,16.60
2019-01-04T06:56:10.068Z,16.33
2019-01-04T06:58:40.809Z,15.77
2019-01-04T07:01:12.222Z,15.73
2019-01-04T07:03:43.167Z,16.13
2019-01-04T07:06:15.084Z,16.30
2019-01-04T07:08:48.917Z,16.53
2019-01-04T07:11:21.209Z,16.27
2019-01-04T07:13:53.595Z,16.53
2019-01-04T07:16:26.382Z,16.63
2019-01-04T07:19:00.069Z,16.10
2019-01-04T07:21:30.905Z,16.87
2019-01-04T07:24:01.438Z,17.10
2019-01-04T07:26:32.984Z,17.70
2019-01-04T07:29:03.638Z,17.90
2019-01-04T07:31:36.643Z,17.47
2019-01-04T07:34:07.535Z,17.87
2019-01-04T07:36:39.735Z,18.00
2019-01-04T07:39:10.799Z,18.27
2019-01-04T07:41:45.785Z,19.43
2019-01-04T07:44:16.377Z,19.43
2019-01-04T07:46:49.085Z,18.43
2019-01-04T07:49:19.749Z,19.20
2019-01-04T07:51:51.415Z,19.60
2019-01-04T07:54:22.865Z,18.60
2019-01-04T07:56:55.680Z,20.27
2019-01-04T07:59:26.684Z,20.40
2019-01-04T08:01:57.424Z,21.03
2019-01-04T08:04:28.841Z,21.57
2019-01-04T08:07:00.811Z,21.57
2019-01-04T08:09:32.664Z,22.07
2019-01-04T08:12:07.499Z,22.00
2019-01-04T08:14:40.502Z,22.73
2019-01-04T08:17:11.907Z,22.40
2019-01-04T08:19:42.811Z,21.80
2019-01-04T08:22:13.606Z,21.87
2019-01-04T08:24:45.433Z,22.10
2019-01-04T08:27:18.089Z,22.40
2019-01-04T08:29:49.753Z,21.67
2019-01-04T08:32:21.115Z,22.20
2019-01-04T08:34:52.140Z,23.03
2019-01-04T08:37:24.762Z,22.07
2019-01-04T08:39:56.637Z,22.90
2019-01-04T08:42:28.863Z,22.03
2019-01-04T08:45:00.800Z,21.87
2019-01-04T08:47:31.585Z,20.80
2019-01-04T08:50:03.225Z,22.03
2019-01-04T08:52:34.265Z,21.53
2019-01-04T08:55:08.367Z,21.63
2019-01-04T08:57:40.529Z,22.90
2019-01-04T09:00:13.528Z,22.17
2019-01-04T09:02:46.208Z,21.87
2019-01-04T09:05:19.504Z,21.73
2019-01-04T09:07:51.179Z,21.83
2019-01-04T09:10:23.329Z,21.93
2019-01-04T09:12:56.654Z,21.50
2019-01-04T09:15:28.030Z,20.70
2019-01-04T09:18:01.148Z,21.83
2019-01-04T09:20:31.447Z,21.37
2019-01-04T09:23:03.681Z,21.93
2019-01-04T09:25:36.536Z,21.40
2019-01-04T09:28:07.252Z,22.80
2019-01-04T09:30:41.813Z,21.40
2019-01-04T09:33:15.759Z,21.20
2019-01-04T09:35:47.275Z,23.43
2019-01-04T09:38:23.560Z,22.30
2019-01-04T09:41:32.283Z,22.47
2019-01-04T09:44:05.143Z,23.63
2019-01-04T09:46:38.147Z,23.80
2019-01-04T09:49:10.581Z,23.67
2019-01-04T09:51:44.009Z,20.70
2019-01-04T09:54:15.666Z,21.57
2019-01-04T09:56:47.778Z,20.67
2019-01-04T09:59:19.457Z,20.47
2019-01-04T10:01:51.222Z,21.13
2019-01-04T10:04:24.560Z,19.13
2019-01-04T10:06:56.234Z,19.80
2019-01-04T10:09:27.324Z,19.97
2019-01-04T10:11:57.703Z,19.30
2019-01-04T10:14:33.415Z,17.93
2019-01-04T10:17:05.726Z,20.10
2019-01-04T10:19:36.859Z,19.23
2019-01-04T10:22:11.271Z,19.10
2019-01-04T10:24:43.862Z,19.13
2019-01-04T10:27:16.640Z,19.40
2019-01-04T10:29:49.461Z,18.20
2019-01-04T10:32:20.173Z,18.87
2019-01-04T10:34:52.383Z,17.70
2019-01-04T10:37:23.953Z,17.53
2019-01-04T10:39:55.618Z,17.73
2019-01-04T10:42:27.767Z,17.63
2019-01-04T10:44:59.346Z,17.27
2019-01-04T10:47:31.314Z,17.17
2019-01-04T10:50:03.962Z,17.50
2019-01-04T10:52:35.022Z,17.60
2019-01-04T10:55:06.344Z,18.27
2019-01-04T10:57:36.637Z,18.40
2019-01-04T11:00:09.964Z,19.07
2019-01-04T11:02:47.253Z,18.53
2019-01-04T11:05:19.073Z,18.73
2019-01-04T11:07:51.460Z,18.80
2019-01-04T11:10:25.050Z,18.40
2019-01-04T11:12:57.203Z,19.60
2019-01-04T11:15:29.563Z,17.70
2019-01-04T11:18:03.327Z,19.23
2019-01-04T11:20:51.968Z,20.17
2019-01-04T11:24:10.405Z,18.63
2019-01-04T11:27:12.680Z,18.07
2019-01-04T11:30:20.617Z,16.67
2019-01-04T11:33:09.895Z,16.17
2019-01-04T11:36:00.709Z,15.03
2019-01-04T11:39:11.445Z,14.07
2019-01-04T11:42:23.955Z,14.87
2019-01-04T11:45:42.828Z,12.77
2019-01-04T11:48:37.863Z,11.40
2019-01-04T11:51:29.141Z,11.07
2019-01-04T11:54:00.902Z,10.40
2019-01-04T11:56:35.531Z,9.90
2019-01-04T11:59:07.452Z,9.50
2019-01-04T12:01:39.147Z,9.70
2019-01-04T12:04:09.975Z,8.83
2019-01-04T12:06:41.240Z,8.43
2019-01-04T12:09:11.496Z,8.37
2019-01-04T12:11:41.792Z,8.80
2019-01-04T12:14:14.066Z,9.33
2019-01-04T12:16:46.511Z,9.03
2019-01-04T12:19:17.846Z,9.30
2019-01-04T12:21:48.175Z,9.77
2019-01-04T12:24:21.664Z,10.10
2019-01-04T12:26:52.142Z,10.10
2019-01-04T12:29:24.634Z,10.60
2019-01-04T12:31:56.435Z,11.00
2019-01-04T12:34:27.942Z,10.97
2019-01-04T12:36:59.909Z,10.67
2019-01-04T12:39:30.217Z,10.27
2019-01-04T12:42:00.500Z,11.17
2019-01-04T12:44:30.833Z,11.13
2019-01-04T12:47:03.510Z,11.27
2019-01-04T12:49:36.198Z,11.60
2019-01-04T12:52:06.711Z,11.40
2019-01-04T12:54:37.105Z,12.30
2019-01-04T12:57:07.417Z,12.60
2019-01-04T12:59:38.666Z,12.50
2019-01-04T13:02:09.426Z,13.60
2019-01-04T13:04:42.398Z,14.33
2019-01-04T13:07:15.037Z,14.73
2019-01-04T13:09:49.020Z,15.27
2019-01-04T13:12:20.368Z,15.07
2019-01-04T13:14:51.445Z,15.77
2019-01-04T13:17:22.077Z,16.30
2019-01-04T13:19:55.362Z,16.53
2019-01-04T13:22:27.758Z,16.90
2019-01-04T13:24:58.574Z,17.23
2019-01-04T13:27:29.308Z,19.27
2019-01-04T13:30:00.481Z,20.17
2019-01-04T13:32:30.841Z,19.73
2019-01-04T13:35:02.975Z,20.07
2019-01-04T13:37:33.954Z,21.13
2019-01-04T13:40:05.503Z,21.80
2019-01-04T13:42:36.718Z,22.33
2019-01-04T13:45:08.284Z,24.23
2019-01-04T13:47:38.959Z,24.97
2019-01-04T13:50:11.417Z,24.03
2019-01-04T13:52:41.884Z,24.20
2019-01-04T13:55:12.323Z,24.47
2019-01-04T13:57:42.644Z,24.73
2019-01-04T14:00:14.404Z,24.77
2019-01-04T14:02:48.354Z,23.57
2019-01-04T14:05:21.514Z,23.80
2019-01-04T14:07:55.268Z,24.47
2019-01-04T14:10:26.094Z,23.00
2019-01-04T14:12:59.926Z,23.80
2019-01-04T14:15:31.348Z,23.87
2019-01-04T14:18:03.720Z,23.80
2019-01-04T14:20:38.350Z,24.53
2019-01-04T14:23:10.520Z,24.13
2019-01-04T14:25:40.852Z,23.57
2019-01-04T14:28:13.202Z,22.13
2019-01-04T14:30:46.890Z,22.73
2019-01-04T14:33:18.274Z,23.83
2019-01-04T14:35:51.144Z,22.57
2019-01-04T14:38:21.877Z,23.23
2019-01-04T14:40:53.226Z,21.93
2019-01-04T14:43:24.799Z,22.57
2019-01-04T14:45:58.195Z,22.83
2019-01-04T14:48:29.331Z,23.57
2019-01-04T14:51:01.922Z,22.57
2019-01-04T14:53:32.213Z,21.77
2019-01-04T14:56:03.510Z,21.37
2019-01-04T14:58:34.643Z,23.57
2019-01-04T15:01:06.336Z,22.60
2019-01-04T15:03:36.831Z,21.50
2019-01-04T15:06:08.645Z,21.57
2019-01-04T15:08:38.922Z,23.03
2019-01-04T15:11:11.184Z,22.53
2019-01-04T15:13:41.467Z,22.97
2019-01-04T15:16:11.797Z,22.50
2019-01-04T15:18:43.108Z,24.23
2019-01-04T15:21:15.503Z,23.00
2019-01-04T15:23:46.117Z,22.17
2019-01-04T15:26:17.261Z,21.40
2019-01-04T15:28:48.406Z,22.13
2019-01-04T15:31:19.939Z,22.20
2019-01-04T15:33:51.292Z,23.10
2019-01-04T15:36:23.855Z,23.87
2019-01-04T15:38:58.507Z,25.43
2019-01-04T15:41:29.624Z,28.33
2019-01-04T15:44:00.901Z,28.13
2019-01-04T15:46:31.842Z,30.30
2019-01-04T15:49:02.384Z,31.07
2019-01-04T15:51:37.353Z,31.97
2019-01-04T15:54:08.636Z,32.10
2019-01-04T15:56:42.350Z,31.87
2019-01-04T15:59:14.448Z,32.23
2019-01-04T16:01:45.910Z,32.70
2019-01-04T16:04:18.587Z,33.90
2019-01-04T16:06:50.709Z,34.30
2019-01-04T16:09:21.830Z,34.53
2019-01-04T16:11:53.286Z,33.17
2019-01-04T16:14:24.619Z,35.63
2019-01-04T16:16:55.296Z,36.27
2019-01-04T16:19:27.514Z,35.53
2019-01-04T16:22:04.465Z,36.10
2019-01-04T16:24:35.575Z,35.07
2019-01-04T16:27:07.480Z,35.03
2019-01-04T16:29:37.950Z,36.17
2019-01-04T16:32:09.088Z,36.63
2019-01-04T16:34:40.805Z,37.13
2019-01-04T16:37:12.904Z,38.90
2019-01-04T16:39:43.479Z,40.93
2019-01-04T16:42:14.957Z,39.90
2019-01-04T16:44:46.066Z,41.33
2019-01-04T16:47:16.939Z,41.90
2019-01-04T16:49:48.581Z,42.60
2019-01-04T16:52:20.998Z,42.10
2019-01-04T16:54:53.332Z,42.07
2019-01-04T16:57:25.191Z,41.67
2019-01-04T16:59:56.579Z,41.83
2019-01-04T17:02:28.026Z,42.10
2019-01-04T17:05:01.207Z,41.17
2019-01-04T17:07:33.011Z,41.00
2019-01-04T17:10:04.971Z,41.60
2019-01-04T17:12:36.873Z,40.30
2019-01-04T17:15:08.396Z,41.80
2019-01-04T17:17:40.051Z,40.87
2019-01-04T17:20:11.575Z,39.03
2019-01-04T17:22:45.828Z,39.27
2019-01-04T17:25:16.727Z,39.37
2019-01-04T17:27:48.602Z,38.17
2019-01-04T17:30:19.589Z,38.73
2019-01-04T17:32:50.330Z,37.43
2019-01-04T17:35:21.343Z,38.30
2019-01-04T17:37:54.431Z,38.67
2019-01-04T17:40:29.212Z,39.60
2019-01-04T17:43:00.998Z,38.60
2019-01-04T17:45:33.435Z,38.17
2019-01-04T17:48:06.325Z,39.40
2019-01-04T17:50:37.677Z,37.77
2019-01-04T17:53:08.851Z,39.70
2019-01-04T17:55:43.346Z,38.83
2019-01-04T17:58:15.703Z,37.43
2019-01-04T18:00:46.552Z,39.30
2019-01-04T18:03:16.950Z,37.27
2019-01-04T18:05:47.891Z,38.67
2019-01-04T18:08:18.829Z,37.53
2019-01-04T18:10:49.849Z,36.70
2019-01-04T18:13:24.910Z,38.97
2019-01-04T18:15:56.026Z,38.43
2019-01-04T18:18:26.878Z,37.53
2019-01-04T18:20:57.379Z,37.60
2019-01-04T18:23:29.425Z,38.47
2019-01-04T18:26:00.710Z,37.83
2019-01-04T18:28:32.899Z,37.57
2019-01-04T18:31:04.109Z,38.47
2019-01-04T18:33:34.928Z,38.27
2019-01-04T18:36:08.407Z,37.23
2019-01-04T18:38:41.133Z,37.47
2019-01-04T18:41:13.331Z,36.30
2019-01-04T18:43:45.569Z,37.00
2019-01-04T18:46:17.821Z,37.40
2019-01-04T18:48:50.993Z,38.10
2019-01-04T18:51:27.162Z,37.37
2019-01-04T18:54:03.240Z,38.20
2019-01-04T18:56:54.208Z,37.67
2019-01-04T18:59:25.578Z,35.03
2019-01-04T19:01:58.771Z,36.27
2019-01-04T19:04:37.128Z,36.47
2019-01-04T19:07:06.412Z,36.17
2019-01-04T19:09:56.347Z,37.13
2019-01-04T19:12:54.228Z,36.00
2019-01-04T19:15:28.494Z,33.83
2019-01-04T19:18:19.883Z,34.97
2019-01-04T19:21:09.343Z,34.60
2019-01-04T19:23:40.787Z,35.37
2019-01-04T19:26:15.102Z,34.73
2019-01-04T19:28:46.429Z,33.63
2019-01-04T19:31:19.855Z,32.27
2019-01-04T19:33:52.712Z,34.10
2019-01-04T19:36:25.876Z,32.47
2019-01-04T19:38:57.314Z,33.33
2019-01-04T19:41:30.032Z,32.60
2019-01-04T19:44:02.808Z,31.93
2019-01-04T19:46:36.784Z,32.90
2019-01-04T19:49:08.404Z,30.93
2019-01-04T19:51:41.402Z,31.80
2019-01-04T19:54:14.624Z,33.40
2019-01-04T19:56:50.005Z,33.30
2019-01-04T19:59:24.101Z,32.50
2019-01-04T20:01:56.258Z,33.17
2019-01-04T20:04:30.734Z,33.87
2019-01-04T20:08:01.217Z,32.83
2019-01-04T20:11:51.443Z,32.40
2019-01-04T20:15:34.678Z,34.13
2019-01-04T20:18:25.063Z,33.93
2019-01-04T20:21:13.568Z,34.63
2019-01-04T20:24:20.664Z,34.33
2019-01-04T20:27:08.906Z,34.47
2019-01-04T20:29:59.432Z,34.23
2019-01-04T20:33:05.292Z,34.17
2019-01-04T20:36:01.137Z,35.70
2019-01-04T20:38:58.602Z,33.33
2019-01-04T20:42:08.263Z,34.03
2019-01-04T20:45:22.966Z,34.37
2019-01-04T20:48:10.931Z,34.57
2019-01-04T20:51:29.912Z,34.73
2019-01-04T20:54:36.762Z,35.00
2019-01-04T20:57:27.530Z,35.67
2019-01-04T21:00:12.952Z,35.37
2019-01-04T21:03:10.334Z,35.90
2019-01-04T21:06:06.107Z,35.37
2019-01-04T21:08:58.912Z,36.57
2019-01-04T21:11:45.819Z,37.77
2019-01-04T21:14:34.188Z,36.43
2019-01-04T21:17:24.797Z,36.37
2019-01-04T21:20:13.377Z,36.17
2019-01-04T21:23:03.574Z,37.50
2019-01-04T21:25:54.124Z,37.10
2019-01-04T21:28:48.174Z,37.67
2019-01-04T21:31:39.846Z,37.30
2019-01-04T21:34:46.396Z,36.57
2019-01-04T21:37:35.405Z,36.50
2019-01-04T21:40:28.143Z,37.90
2019-01-04T21:43:21.685Z,37.87
2019-01-04T21:46:27.944Z,36.60
2019-01-04T21:49:16.709Z,36.80
2019-01-04T21:52:05.596Z,37.43
2019-01-04T21:55:11.806Z,36.10
2019-01-04T21:58:00.622Z,36.20
2019-01-04T22:01:00.349Z,37.27
2019-01-04T22:04:06.708Z,35.67
2019-01-04T22:06:55.787Z,37.37
2019-01-04T22:09:51.861Z,37.30
2019-01-04T22:12:39.373Z,37.33
2019-01-04T22:15:39.003Z,37.33
2019-01-04T22:18:28.376Z,37.10
2019-01-04T22:21:20.562Z,36.20
2019-01-04T22:24:09.567Z,37.70
2019-01-04T22:26:57.285Z,36.07
2019-01-04T22:29:56.493Z,36.47
2019-01-04T22:32:50.420Z,35.60
2019-01-04T22:35:55.873Z,35.63
2019-01-04T22:38:46.405Z,33.70
2019-01-04T22:41:42.965Z,35.00
2019-01-04T22:47:53.247Z,31.97
2019-01-04T22:50:42.591Z,32.43
2019-01-04T22:53:31.958Z,32.90
2019-01-04T22:56:22.173Z,33.00
2019-01-04T22:59:11.125Z,31.40
2019-01-04T23:02:02.050Z,31.37
2019-01-04T23:04:54.772Z,33.10
2019-01-04T23:07:58.077Z,31.90
2019-01-04T23:10:47.139Z,32.57
2019-01-04T23:13:38.418Z,33.07
2019-01-04T23:16:32.240Z,33.60
2019-01-04T23:19:27.342Z,33.17
2019-01-04T23:22:22.874Z,32.37
2019-01-04T23:25:27.076Z,32.60
2019-01-04T23:28:25.262Z,32.50
2019-01-04T23:31:13.708Z,32.87
2019-01-04T23:34:09.126Z,32.77
2019-01-04T23:36:58.530Z,32.83
2019-01-04T23:39:48.585Z,31.77
2019-01-04T23:42:38.432Z,32.97
2019-01-04T23:45:34.001Z,31.70
2019-01-04T23:48:29.769Z,33.83
2019-01-04T23:51:21.662Z,33.00
2019-01-04T23:54:10.505Z,33.43
2019-01-04T23:57:09.048Z,31.97
